KQEW

Sangju Rws

Sangju Rws, South Korea
METAR KQEW 210530Z AUTO 32003KT 9999 SCT055 33/20 A2962 RMK A02 TSNO
Observed Flight Rules
Aug-21 @ 05:30 UTC (9 hours ago) Visual Flight Rules
Wind Visibility Clouds
320° at 3 knots 10,000+ meters
  • Scattered at 5,500' AGL
Temperatures Readings
Current 33°C / 91°F
Dewpoint 20°C / 68°F
Humidity 46%
Altimeter 29.62" Hg
Pressure 1003 hPa
METAR KQEW 210530Z AUTO 32003KT 9999 SCT055 33/20 A2962 RMK A02 TSNO
Observed Flight Rules
Aug-21 @ 05:30 UTC
(9 hours ago)
VFR
Wind Visibility
320° at 3 knots 10,000+ meters
Clouds
  • Scattered at 5,500' AGL
Temperature Dewpoint
33°C / 91°F 20°C / 68°F
Humidity Altimeter Pressure
46% 29.62" Hg 1003 hPa